Impacts TAF Board
For situational awareness. Not to be used for flight planning purposes.
IDs:

KGGG - Longview/Gregg Cnty, TX, US

Issued at 2340 UTC 05 Dec 2019
Updated at 0123 UTC 06 Dec 2019
Potential Impact None Slight Moderate High
Time0053Z 06/02Z 06/03Z 06/04Z 06/05Z 06/06Z 06/07Z 06/08Z 06/09Z 06/10Z 06/11Z 06/12Z 06/13Z 06/14Z>>
Type OBS PRVL PRVL PRVL PRVL PRVL PRVL PRVL PRVL PRVL PRVL PRVL PRVL PRVL
VIS 10 >6 >6 >6 >6 >6 >6 >6 >6 >6 >6 >6 >6 >6
CIG -- 120 120 25 25 25 25 25 15 15 15 15 15 15
Cover CLR BKN BKN OVC OVC OVC OVC OVC OVC OVC OVC OVC OVC OVC
FltCat VFR VFR VFR MVFR MVFR MVFR MVFR MVFR MVFR MVFR MVFR MVFR MVFR MVFR
WX -- -- -- -- -- -- -- -- -- -- -- -- -- --
WDir 160 180 180 180 180 180 180 180 210 210 210 210 210 210
WSpd 8 12 12 12 12 12 12 12 12 12 12 12 12 12
WGst -- 18 18 18 18 18 18 18 -- -- -- -- -- --
Raw TAF
KGGG 052340Z 0600/0624 18012G18KT P6SM SCT035 BKN120
  FM060400 18012G18KT P6SM BKN025 OVC100
  FM060900 21012KT P6SM BKN015 OVC080
  FM061600 30012KT P6SM BKN015


Raw METAR
KGGG 060053Z 16008KT 10SM CLR 16/08 A2993 RMK AO2 SLP136 T01610083
KGGG 052353Z 15010KT 10SM CLR 17/08 A2993 RMK AO2 SLP135 T01720078 10217 20172 53001
KGGG 052253Z 14007KT 10SM CLR 18/08 A2993 RMK AO2 SLP134 T01830083

METAR Board
Radar Display
Forecast Discussion
For situational awareness. Not to be used for flight planning purposes.